Time;durP1;ratioP1;P1;durP2;ratioP2;P2;SDS_P1;SDS_P2;PMS_P1;PMS_P2;Temp;Humidity;BMP_temperature;BMP_pressure;BME280_temperature;BME280_humidity;BME280_pressure;Samples;Min_cycle;Max_cycle;Signal;HPM_P1;HPM_P2
2024/01/26 00:00:57;;;;;;;19.50;1.92;;;38.50;8.30;;;;;;4960852;28;20184;-76
2024/01/26 00:03:25;;;;;;;11.77;1.40;;;38.40;6.00;;;;;;4966595;28;20187;-76
2024/01/26 00:05:52;;;;;;;7.53;1.20;;;38.60;7.40;;;;;;4973070;28;20179;-77
2024/01/26 00:08:20;;;;;;;7.25;1.45;;;38.80;6.40;;;;;;4973534;28;20346;-77
2024/01/26 00:10:48;;;;;;;3.53;0.85;;;38.40;3.00;;;;;;4963375;28;20213;-77
2024/01/26 00:13:16;;;;;;;4.45;0.73;;;38.10;2.30;;;;;;4962906;28;20233;-73
2024/01/26 00:15:49;;;;;;;8.25;1.10;;;38.20;3.20;;;;;;4963665;28;20207;-76
2024/01/26 00:18:17;;;;;;;4.95;0.90;;;38.50;1.80;;;;;;4963962;28;20184;-77
2024/01/26 00:20:45;;;;;;;5.13;0.88;;;38.50;4.00;;;;;;4964216;28;20206;-77
2024/01/26 00:23:13;;;;;;;4.97;0.95;;;38.50;1.00;;;;;;4967236;28;20175;-74
2024/01/26 00:25:40;;;;;;;8.93;1.17;;;38.30;2.30;;;;;;4961181;28;20183;-73
2024/01/26 00:28:08;;;;;;;8.05;1.02;;;38.40;1.30;;;;;;4963588;28;20181;-77
2024/01/26 00:30:36;;;;;;;4.70;1.13;;;38.30;1.00;;;;;;4969363;28;20187;-76
2024/01/26 00:33:04;;;;;;;6.65;1.15;;;38.30;1.20;;;;;;4968832;28;20747;-76
2024/01/26 00:35:31;;;;;;;8.52;1.10;;;38.70;1.00;;;;;;4961410;28;20331;-76
2024/01/26 00:37:59;;;;;;;6.75;1.20;;;39.10;1.00;;;;;;4966547;28;20194;-76
2024/01/26 00:43:49;;;;;;;5.80;1.10;;;39.10;1.00;;;;;;4961258;28;20255;-77
2024/01/26 00:46:17;;;;;;;2.63;0.80;;;39.20;1.00;;;;;;4955778;28;20196;-76
2024/01/26 00:48:44;;;;;;;5.63;1.30;;;39.40;1.00;;;;;;4953611;28;20187;-75
2024/01/26 00:51:12;;;;;;;10.60;0.85;;;39.90;1.00;;;;;;4964690;28;20200;-75
2024/01/26 00:53:40;;;;;;;3.03;1.05;;;39.70;1.00;;;;;;4972867;28;20266;-75
2024/01/26 00:56:07;;;;;;;4.20;1.55;;;39.30;1.00;;;;;;4972999;28;20171;-76
2024/01/26 00:58:35;;;;;;;5.18;1.35;;;39.20;1.00;;;;;;4972314;28;20183;-77
2024/01/26 01:01:03;;;;;;;5.18;1.08;;;39.10;1.00;;;;;;4968847;28;20184;-78
2024/01/26 01:03:31;;;;;;;7.18;1.35;;;39.10;1.00;;;;;;4960160;28;20599;-78
2024/01/26 01:05:59;;;;;;;4.72;0.98;;;38.90;1.00;;;;;;4959546;28;20188;-76
2024/01/26 01:08:26;;;;;;;1.67;0.90;;;38.70;1.00;;;;;;4960068;28;20279;-74
2024/01/26 01:10:54;;;;;;;8.50;1.58;;;39.00;1.00;;;;;;4966495;28;20190;-75
2024/01/26 01:13:22;;;;;;;6.35;1.27;;;39.00;1.00;;;;;;4978380;28;20223;-76
2024/01/26 01:15:51;;;;;;;3.92;0.93;;;39.20;1.00;;;;;;4979047;28;20190;-76
2024/01/26 01:18:19;;;;;;;6.15;1.00;;;39.30;1.00;;;;;;4972372;28;20183;-76
2024/01/26 01:20:47;;;;;;;5.38;1.05;;;39.20;1.00;;;;;;4965948;28;20183;-74
2024/01/26 01:23:15;;;;;;;4.43;1.00;;;39.40;1.00;;;;;;4978752;28;20171;-77
2024/01/26 01:25:43;;;;;;;4.18;0.93;;;39.30;1.00;;;;;;4977626;28;20193;-72
2024/01/26 01:28:10;;;;;;;3.78;0.90;;;39.50;1.00;;;;;;4978314;28;20614;-74
2024/01/26 01:30:38;;;;;;;3.40;1.17;;;39.60;1.00;;;;;;4971820;28;20188;-76
2024/01/26 01:33:06;;;;;;;6.15;1.10;;;39.70;1.00;;;;;;4959468;28;20243;-74
2024/01/26 01:35:34;;;;;;;5.60;1.17;;;39.60;1.00;;;;;;4959008;28;20281;-77
2024/01/26 01:38:01;;;;;;;5.07;1.20;;;39.60;1.00;;;;;;4959534;28;20183;-77
2024/01/26 01:40:29;;;;;;;4.97;0.80;;;39.80;1.00;;;;;;4963172;28;20194;-76
2024/01/26 01:42:57;;;;;;;3.83;1.23;;;39.70;1.00;;;;;;4978201;28;20263;-74
2024/01/26 01:52:16;;;;;;;2.75;0.60;;;39.90;1.00;;;;;;4972936;28;20230;-76
2024/01/26 01:54:44;;;;;;;5.22;1.10;;;40.20;1.00;;;;;;4978774;28;20198;-75
2024/01/26 01:57:13;;;;;;;6.18;1.35;;;40.30;1.00;;;;;;4976389;28;20283;-79
2024/01/26 01:59:44;;;;;;;4.80;1.38;;;40.20;1.00;;;;;;4959477;28;20263;-76
2024/01/26 02:02:11;;;;;;;6.55;1.00;;;40.20;1.00;;;;;;4976273;28;20183;-76
2024/01/26 02:04:39;;;;;;;3.80;1.13;;;40.40;1.00;;;;;;4978117;28;20235;-76
2024/01/26 02:07:07;;;;;;;7.35;1.65;;;40.20;1.00;;;;;;4978634;28;20646;-76
2024/01/26 02:09:35;;;;;;;6.85;1.02;;;40.10;1.00;;;;;;4978534;28;20178;-77
2024/01/26 02:12:03;;;;;;;8.50;1.38;;;40.10;1.00;;;;;;4959613;28;20286;-76
2024/01/26 02:14:31;;;;;;;4.68;1.00;;;39.90;1.00;;;;;;4968223;28;20255;-78
2024/01/26 02:17:03;;;;;;;15.88;1.98;;;39.70;1.00;;;;;;4975376;28;20187;-75
2024/01/26 02:19:33;;;;;;;9.95;1.15;;;39.60;1.00;;;;;;4968843;28;20549;-77
2024/01/26 02:22:01;;;;;;;9.75;1.33;;;39.90;1.00;;;;;;4958876;28;20338;-75
2024/01/26 02:24:28;;;;;;;9.90;1.60;;;40.10;1.00;;;;;;4955804;28;20631;-77
2024/01/26 02:26:56;;;;;;;6.15;1.08;;;40.10;1.00;;;;;;4972267;28;20198;-77
2024/01/26 02:29:24;;;;;;;3.05;1.10;;;40.30;1.00;;;;;;4966575;28;20217;-76
2024/01/26 02:31:51;;;;;;;5.55;1.20;;;40.30;1.00;;;;;;4971673;28;20214;-77
2024/01/26 02:34:19;;;;;;;9.93;1.20;;;40.50;1.00;;;;;;4974774;28;20183;-76
2024/01/26 02:36:47;;;;;;;5.03;1.08;;;40.70;1.00;;;;;;4974952;28;20604;-76
2024/01/26 02:39:15;;;;;;;8.32;1.20;;;41.00;1.00;;;;;;4967457;28;20171;-77
2024/01/26 02:41:43;;;;;;;12.82;1.42;;;40.90;1.00;;;;;;4955771;28;20318;-77
2024/01/26 02:44:10;;;;;;;9.13;1.40;;;40.90;1.00;;;;;;4954234;29;20191;-77
2024/01/26 02:46:38;;;;;;;7.60;1.08;;;40.90;1.00;;;;;;4954317;29;20188;-77
2024/01/26 02:49:06;;;;;;;3.40;0.82;;;41.00;1.00;;;;;;4959004;28;20278;-75
2024/01/26 02:51:33;;;;;;;6.40;1.17;;;41.10;1.00;;;;;;4964279;28;20561;-72
2024/01/26 02:54:02;;;;;;;6.13;1.20;;;41.30;1.00;;;;;;4974597;28;20183;-73
2024/01/26 02:56:30;;;;;;;6.80;1.10;;;41.40;1.00;;;;;;4966440;28;20192;-74
2024/01/26 02:58:58;;;;;;;8.50;1.52;;;41.20;1.00;;;;;;4955269;28;20236;-75
2024/01/26 03:01:25;;;;;;;7.32;1.20;;;41.10;1.00;;;;;;4955321;28;20683;-78
2024/01/26 03:03:53;;;;;;;2.88;0.73;;;41.30;1.00;;;;;;4954848;28;20223;-78
2024/01/26 03:06:21;;;;;;;12.32;1.55;;;40.70;1.00;;;;;;4955712;28;20647;-77
2024/01/26 03:08:48;;;;;;;5.40;0.82;;;40.70;1.00;;;;;;4955467;28;20184;-77
2024/01/26 03:11:16;;;;;;;5.18;0.98;;;40.80;1.00;;;;;;4954577;28;20180;-77
2024/01/26 03:13:44;;;;;;;6.05;1.55;;;40.80;1.00;;;;;;4953781;29;20191;-78
2024/01/26 03:16:12;;;;;;;6.15;1.20;;;41.00;1.00;;;;;;4955159;28;20180;-77
2024/01/26 03:18:40;;;;;;;9.45;1.05;;;40.90;1.00;;;;;;4954570;28;20250;-78
2024/01/26 03:21:07;;;;;;;5.50;1.70;;;41.00;1.00;;;;;;4955176;29;20540;-78
2024/01/26 03:23:35;;;;;;;3.47;0.90;;;41.00;1.00;;;;;;4954555;28;20180;-77
2024/01/26 03:26:03;;;;;;;7.38;1.17;;;41.10;1.00;;;;;;4954681;29;20215;-76
2024/01/26 03:28:32;;;;;;;4.70;0.77;;;40.90;1.00;;;;;;4954833;28;20451;-77
2024/01/26 03:30:59;;;;;;;3.45;0.85;;;40.80;1.00;;;;;;4954479;28;20591;-78
2024/01/26 03:33:27;;;;;;;5.82;0.95;;;40.40;1.00;;;;;;4956105;28;20219;-79
2024/01/26 03:35:56;;;;;;;5.55;1.00;;;40.20;1.00;;;;;;4956070;28;20266;-77
2024/01/26 03:38:24;;;;;;;2.95;1.00;;;40.40;1.00;;;;;;4956569;28;20184;-78
2024/01/26 03:40:51;;;;;;;4.13;1.00;;;40.40;1.00;;;;;;4956235;29;20534;-78
2024/01/26 03:43:19;;;;;;;5.28;0.90;;;40.10;1.00;;;;;;4954956;29;20187;-75
2024/01/26 03:45:47;;;;;;;10.45;2.63;;;40.20;1.00;;;;;;4956147;29;20179;-75
2024/01/26 03:48:14;;;;;;;10.95;3.70;;;39.90;10.80;;;;;;4956275;29;20190;-77
2024/01/26 03:54:04;;;;;;;19.08;4.22;;;36.20;99.90;;;;;;4955894;29;20227;-77
2024/01/26 03:56:32;;;;;;;10.77;3.60;;;35.10;99.90;;;;;;4955842;29;20492;-77
2024/01/26 03:59:00;;;;;;;11.23;3.80;;;34.30;99.90;;;;;;4955937;28;20230;-77
2024/01/26 04:01:27;;;;;;;15.10;4.25;;;33.70;99.90;;;;;;4955765;29;20575;-77
2024/01/26 04:03:56;;;;;;;20.63;4.28;;;33.40;99.90;;;;;;4955721;28;20187;-77
2024/01/26 04:06:23;;;;;;;19.45;4.65;;;32.60;99.90;;;;;;4955842;28;20291;-77
2024/01/26 04:08:51;;;;;;;17.65;4.28;;;32.00;99.90;;;;;;4954531;29;20195;-76
2024/01/26 04:11:19;;;;;;;18.80;4.20;;;32.00;99.90;;;;;;4955535;28;20214;-76
2024/01/26 04:17:08;;;;;;;14.85;4.80;;;31.90;99.90;;;;;;4955198;29;20230;-76
2024/01/26 04:19:36;;;;;;;14.68;4.75;;;31.90;99.90;;;;;;4954276;29;20180;-76
2024/01/26 04:22:08;;;;;;;15.35;3.70;;;31.60;99.90;;;;;;4955940;29;20184;-75
2024/01/26 04:27:57;;;;;;;19.67;4.18;;;31.20;99.90;;;;;;4954883;29;20188;-76
2024/01/26 04:30:25;;;;;;;15.55;4.03;;;31.00;99.90;;;;;;4954200;29;20199;-76
2024/01/26 04:36:16;;;;;;;14.18;3.78;;;31.00;99.90;;;;;;4954083;28;20312;-76
2024/01/26 04:38:44;;;;;;;16.50;3.92;;;31.10;99.90;;;;;;4955478;28;20195;-76
2024/01/26 04:41:11;;;;;;;12.38;3.60;;;31.00;99.90;;;;;;4955356;29;20188;-76
2024/01/26 04:43:40;;;;;;;12.25;3.53;;;30.60;99.90;;;;;;4955245;28;20183;-75
2024/01/26 04:46:07;;;;;;;19.80;3.85;;;30.70;99.90;;;;;;4933113;28;20274;-77
2024/01/26 04:48:35;;;;;;;13.35;3.80;;;31.00;99.90;;;;;;4952287;29;20685;-75
2024/01/26 04:51:03;;;;;;;13.45;3.88;;;31.20;99.90;;;;;;4953612;28;20180;-75
2024/01/26 04:53:31;;;;;;;16.00;3.83;;;31.70;99.90;;;;;;4952967;28;20220;-75
2024/01/26 04:55:59;;;;;;;12.10;3.38;;;32.50;99.90;;;;;;4953664;28;20172;-76
2024/01/26 04:58:27;;;;;;;12.10;3.45;;;33.00;99.90;;;;;;4953432;28;20184;-75
2024/01/26 05:00:55;;;;;;;15.85;3.25;;;33.00;99.90;;;;;;4953248;28;20252;-75
2024/01/26 05:03:22;;;;;;;14.43;3.28;;;33.00;99.90;;;;;;4952059;28;20192;-75
2024/01/26 05:05:50;;;;;;;13.15;2.92;;;32.60;99.90;;;;;;4953595;28;20183;-75
2024/01/26 05:08:18;;;;;;;13.45;2.78;;;32.80;99.90;;;;;;4953138;28;20191;-74
2024/01/26 05:10:46;;;;;;;11.90;2.83;;;32.90;99.90;;;;;;4953371;28;20508;-75
2024/01/26 05:13:13;;;;;;;17.05;3.42;;;33.10;99.90;;;;;;4952018;29;20315;-76
2024/01/26 05:15:41;;;;;;;13.23;2.92;;;32.80;99.90;;;;;;4959336;28;20187;-75
2024/01/26 05:18:09;;;;;;;10.40;3.03;;;33.20;99.90;;;;;;4972761;28;20182;-75
2024/01/26 05:20:37;;;;;;;12.07;2.60;;;33.20;99.90;;;;;;4972905;28;20183;-75
2024/01/26 05:23:05;;;;;;;10.98;2.97;;;32.90;99.90;;;;;;4974139;28;20659;-75
2024/01/26 05:25:33;;;;;;;13.13;2.55;;;32.50;99.90;;;;;;4974100;28;20291;-76
2024/01/26 05:28:00;;;;;;;11.60;3.30;;;32.80;99.90;;;;;;4974781;28;20254;-76
2024/01/26 05:30:28;;;;;;;13.02;3.33;;;32.10;99.90;;;;;;4974786;28;20182;-75
2024/01/26 05:32:56;;;;;;;14.65;2.90;;;31.80;99.90;;;;;;4974301;28;20218;-75
2024/01/26 05:35:24;;;;;;;16.85;3.55;;;31.40;99.90;;;;;;4973818;28;20318;-77
2024/01/26 05:37:52;;;;;;;14.27;3.50;;;31.20;99.90;;;;;;4974076;28;20188;-76
2024/01/26 05:40:19;;;;;;;12.40;3.58;;;31.00;99.90;;;;;;4973979;28;20230;-75
2024/01/26 05:42:47;;;;;;;22.38;5.25;;;31.10;99.90;;;;;;4973859;28;20212;-76
2024/01/26 05:45:16;;;;;;;18.25;3.88;;;31.40;99.90;;;;;;4974088;28;20187;-75
2024/01/26 05:47:43;;;;;;;12.55;3.17;;;32.10;99.90;;;;;;4977437;28;20215;-76
2024/01/26 05:50:11;;;;;;;15.05;3.10;;;32.00;99.90;;;;;;4977546;28;20201;-75
2024/01/26 05:52:40;;;;;;;15.50;3.50;;;31.90;99.90;;;;;;4977538;28;20211;-76
2024/01/26 05:55:08;;;;;;;16.65;3.53;;;31.70;99.90;;;;;;4977365;28;20202;-76
2024/01/26 05:57:36;;;;;;;13.93;2.60;;;31.50;99.90;;;;;;4977445;28;20183;-75
2024/01/26 06:00:04;;;;;;;11.73;2.75;;;31.10;99.90;;;;;;4977342;28;20186;-75
2024/01/26 06:02:32;;;;;;;15.80;3.65;;;31.10;99.90;;;;;;4977585;28;20233;-77
2024/01/26 06:04:59;;;;;;;15.70;3.00;;;31.20;99.90;;;;;;4977134;28;20178;-77
2024/01/26 06:07:27;;;;;;;13.45;3.80;;;31.20;99.90;;;;;;4977322;28;20203;-77
2024/01/26 06:10:01;;;;;;;18.83;3.67;;;31.40;99.90;;;;;;4977298;28;20658;-77
2024/01/26 06:12:40;;;;;;;13.40;3.80;;;31.20;99.90;;;;;;4977317;28;20669;-77
2024/01/26 06:15:10;;;;;;;14.55;3.38;;;31.20;99.90;;;;;;4976880;28;20300;-76
2024/01/26 06:17:39;;;;;;;17.02;3.72;;;30.60;99.90;;;;;;4977175;28;20545;-76
2024/01/26 06:20:08;;;;;;;17.85;3.88;;;30.80;99.90;;;;;;4977686;28;20741;-73
2024/01/26 06:22:35;;;;;;;18.02;4.03;;;30.80;99.90;;;;;;4978642;28;20197;-74
2024/01/26 06:25:04;;;;;;;18.60;4.55;;;30.40;99.90;;;;;;4961045;28;20183;-73
2024/01/26 06:30:53;;;;;;;19.43;5.10;;;29.90;99.90;;;;;;4958594;29;20212;-74
2024/01/26 06:33:22;;;;;;;17.67;5.40;;;29.30;99.90;;;;;;4957991;28;20741;-75
2024/01/26 06:35:50;;;;;;;18.33;5.87;;;28.90;99.90;;;;;;4957847;28;20251;-77
2024/01/26 06:38:17;;;;;;;19.47;5.50;;;28.40;99.90;;;;;;4961229;29;20227;-76
2024/01/26 06:40:46;;;;;;;23.30;6.07;;;28.20;99.90;;;;;;4955043;28;20199;-74
2024/01/26 06:43:16;;;;;;;20.23;6.20;;;28.20;99.90;;;;;;4955214;28;20191;-75
2024/01/26 06:45:47;;;;;;;20.77;5.77;;;28.00;99.90;;;;;;4958651;28;20194;-74
2024/01/26 06:48:15;;;;;;;16.63;6.07;;;27.60;99.90;;;;;;4965260;28;20192;-74
2024/01/26 06:50:43;;;;;;;19.93;6.50;;;27.50;99.90;;;;;;4960258;28;20199;-76
2024/01/26 06:53:10;;;;;;;18.13;5.97;;;27.50;99.90;;;;;;4964676;28;20219;-74
2024/01/26 06:55:38;;;;;;;13.70;5.50;;;27.30;99.90;;;;;;4974005;28;20183;-74
2024/01/26 06:58:06;;;;;;;18.40;6.10;;;27.30;99.90;;;;;;4973735;28;20179;-76
2024/01/26 07:00:44;;;;;;;19.87;6.57;;;27.00;99.90;;;;;;4974372;28;20171;-76
2024/01/26 07:06:37;;;;;;;16.80;5.80;;;26.70;99.90;;;;;;4954404;29;20210;-73
2024/01/26 07:09:06;;;;;;;18.00;4.67;;;26.60;99.90;;;;;;4953791;29;20192;-76
2024/01/26 07:11:34;;;;;;;18.33;4.90;;;26.50;99.90;;;;;;4955532;28;20617;-75
2024/01/26 07:14:05;;;;;;;13.47;4.57;;;26.50;99.90;;;;;;4955044;29;20184;-77
2024/01/26 07:16:33;;;;;;;18.73;5.00;;;26.50;99.90;;;;;;4957116;28;20208;-75
2024/01/26 07:19:00;;;;;;;16.40;4.70;;;26.30;99.90;;;;;;4956593;28;20176;-75
2024/01/26 07:21:31;;;;;;;14.97;4.73;;;26.20;99.90;;;;;;4955339;29;20192;-75
2024/01/26 07:26:56;;;;;;;17.03;5.03;;;26.00;99.90;;;;;;4954880;28;20199;-75
2024/01/26 07:29:24;;;;;;;16.37;5.00;;;26.10;99.90;;;;;;4955199;29;20551;-74
2024/01/26 07:31:54;;;;;;;11.77;4.17;;;26.10;99.90;;;;;;4956380;28;20282;-75
2024/01/26 07:34:22;;;;;;;16.60;5.03;;;26.10;99.90;;;;;;4956464;28;20215;-74
2024/01/26 07:36:49;;;;;;;18.03;4.70;;;26.10;99.90;;;;;;4954829;29;20575;-74
2024/01/26 07:39:27;;;;;;;10.77;4.23;;;26.20;99.90;;;;;;4956391;28;20664;-74
2024/01/26 07:41:55;;;;;;;16.20;4.50;;;26.10;99.90;;;;;;4956164;28;20222;-73
2024/01/26 07:44:23;;;;;;;14.67;4.67;;;25.90;99.90;;;;;;4956196;28;20180;-75
2024/01/26 07:46:50;;;;;;;13.33;4.20;;;25.70;99.90;;;;;;4956277;28;20171;-74
2024/01/26 07:49:18;;;;;;;13.83;4.93;;;25.40;99.90;;;;;;4956150;28;20180;-76
2024/01/26 07:51:46;;;;;;;21.10;4.40;;;25.40;99.90;;;;;;4956067;28;20223;-75
2024/01/26 07:54:14;;;;;;;19.40;4.60;;;25.40;99.90;;;;;;4956212;28;20176;-75
2024/01/26 07:56:48;;;;;;;13.27;4.23;;;25.40;99.90;;;;;;4956114;28;20183;-76
2024/01/26 07:59:15;;;;;;;19.50;4.63;;;25.20;99.90;;;;;;4956186;28;20164;-75
2024/01/26 08:01:43;;;;;;;19.53;4.07;;;25.20;99.90;;;;;;4955829;28;20176;-76
2024/01/26 08:04:11;;;;;;;21.13;4.30;;;25.30;99.90;;;;;;4956031;28;20633;-76
2024/01/26 08:06:41;;;;;;;22.23;4.60;;;25.30;99.90;;;;;;4955892;28;20544;-75
2024/01/26 08:09:10;;;;;;;22.07;4.87;;;25.20;99.90;;;;;;4955941;28;20180;-75
2024/01/26 08:11:38;;;;;;;12.40;3.87;;;25.20;99.90;;;;;;4955961;28;20232;-75
2024/01/26 08:14:06;;;;;;;19.70;4.50;;;25.20;99.90;;;;;;4955582;28;20183;-75
2024/01/26 08:19:22;;;;;;;18.47;3.97;;;25.10;99.90;;;;;;4954241;28;20250;-76
2024/01/26 08:21:49;;;;;;;14.97;4.53;;;25.00;99.90;;;;;;4955465;29;20208;-75
2024/01/26 08:24:17;;;;;;;18.17;5.10;;;25.00;99.90;;;;;;4955680;28;20195;-75
2024/01/26 08:26:45;;;;;;;19.33;4.63;;;25.00;99.90;;;;;;4955417;28;20204;-77
2024/01/26 08:29:13;;;;;;;18.80;4.20;;;24.90;99.90;;;;;;4955384;28;20287;-74
2024/01/26 08:31:41;;;;;;;14.50;3.90;;;24.90;99.90;;;;;;4955459;28;20208;-76
2024/01/26 08:34:09;;;;;;;16.33;4.30;;;24.90;99.90;;;;;;4954148;29;20661;-75
2024/01/26 08:36:37;;;;;;;19.53;5.10;;;25.00;99.90;;;;;;4953695;29;20282;-75
2024/01/26 08:39:05;;;;;;;22.33;5.10;;;25.00;99.90;;;;;;4955054;28;20188;-76
2024/01/26 08:41:32;;;;;;;14.17;4.40;;;25.00;99.90;;;;;;4953922;29;20194;-76
2024/01/26 08:44:00;;;;;;;16.73;5.17;;;24.80;99.90;;;;;;4955090;28;20176;-76
2024/01/26 08:46:28;;;;;;;25.73;6.03;;;24.80;99.90;;;;;;4955550;28;20253;-76
2024/01/26 08:48:56;;;;;;;17.33;3.77;;;24.80;99.90;;;;;;4955107;28;20176;-75
2024/01/26 08:51:25;;;;;;;26.43;4.83;;;24.80;99.90;;;;;;4955266;28;20187;-76
2024/01/26 08:53:53;;;;;;;19.53;4.33;;;24.70;99.90;;;;;;4955138;28;20653;-76
2024/01/26 08:56:21;;;;;;;20.97;5.97;;;24.70;99.90;;;;;;4955293;28;20650;-74
2024/01/26 08:58:48;;;;;;;17.73;4.57;;;24.60;99.90;;;;;;4955445;28;20231;-77
2024/01/26 09:01:16;;;;;;;22.73;5.13;;;24.60;99.90;;;;;;4955494;28;20194;-76
2024/01/26 09:03:44;;;;;;;22.70;4.70;;;24.40;99.90;;;;;;4955125;28;20211;-74
2024/01/26 09:06:11;;;;;;;23.57;4.63;;;24.50;99.90;;;;;;4955104;28;20542;-75
2024/01/26 09:08:39;;;;;;;18.30;3.90;;;24.50;99.90;;;;;;4954976;28;20179;-76
2024/01/26 09:11:08;;;;;;;16.37;3.93;;;24.40;99.90;;;;;;4955125;28;20533;-75
2024/01/26 09:13:35;;;;;;;13.13;3.70;;;24.40;99.90;;;;;;4954788;28;20219;-77
2024/01/26 09:16:03;;;;;;;31.80;4.87;;;24.30;99.90;;;;;;4955128;28;20705;-76
2024/01/26 09:18:31;;;;;;;20.13;4.17;;;24.20;99.90;;;;;;4954717;29;20176;-76
2024/01/26 09:20:59;;;;;;;11.30;4.00;;;24.20;99.90;;;;;;4955875;28;20172;-75
2024/01/26 09:23:27;;;;;;;15.43;3.70;;;24.20;99.90;;;;;;4958547;28;20211;-75
2024/01/26 09:25:54;;;;;;;16.23;3.87;;;24.40;99.90;;;;;;4958634;28;20180;-76
2024/01/26 09:28:22;;;;;;;12.20;3.43;;;24.30;99.90;;;;;;4958675;28;20180;-75
2024/01/26 09:30:50;;;;;;;20.00;4.30;;;24.20;99.90;;;;;;4958570;28;20186;-76
2024/01/26 09:33:17;;;;;;;20.77;4.77;;;24.10;99.90;;;;;;4958312;28;20319;-77
2024/01/26 09:39:07;;;;;;;21.03;4.43;;;24.20;99.90;;;;;;4958148;29;20653;-76
2024/01/26 09:41:35;;;;;;;17.57;3.53;;;24.20;99.90;;;;;;4957042;29;20195;-73
2024/01/26 09:44:02;;;;;;;20.17;4.17;;;24.20;99.90;;;;;;4958612;28;20180;-74
2024/01/26 09:46:32;;;;;;;24.53;4.20;;;24.20;99.90;;;;;;4958375;28;20180;-75
2024/01/26 09:49:00;;;;;;;13.47;4.17;;;24.20;99.90;;;;;;4958498;28;20180;-76
2024/01/26 09:51:28;;;;;;;31.07;5.00;;;24.20;99.90;;;;;;4935548;28;20195;-74
2024/01/26 09:54:01;;;;;;;25.53;5.60;;;24.20;99.90;;;;;;4957362;28;20561;-74
2024/01/26 09:56:29;;;;;;;16.43;3.87;;;24.10;99.90;;;;;;4965171;28;20187;-73
2024/01/26 09:58:57;;;;;;;13.97;4.00;;;24.10;99.90;;;;;;4969765;28;20263;-75
2024/01/26 10:01:25;;;;;;;19.13;3.57;;;24.10;99.90;;;;;;4957638;28;20283;-75
2024/01/26 10:03:55;;;;;;;16.63;3.97;;;24.20;99.90;;;;;;4957950;28;20267;-75
2024/01/26 10:06:23;;;;;;;24.33;4.07;;;24.20;99.90;;;;;;4958745;28;20576;-75
2024/01/26 10:08:51;;;;;;;16.87;4.30;;;24.20;99.90;;;;;;4957918;28;20664;-74
2024/01/26 10:11:19;;;;;;;24.23;4.40;;;24.10;99.90;;;;;;4958353;29;20584;-73
2024/01/26 10:13:46;;;;;;;23.27;4.33;;;24.10;99.90;;;;;;4957960;28;20196;-77
2024/01/26 10:16:14;;;;;;;20.80;3.80;;;24.00;99.90;;;;;;4962699;28;20210;-75
2024/01/26 10:18:47;;;;;;;17.00;3.70;;;24.10;99.90;;;;;;4964108;28;20220;-73
2024/01/26 10:21:16;;;;;;;21.03;3.33;;;24.10;99.90;;;;;;4958051;28;20202;-76
2024/01/26 10:23:44;;;;;;;24.43;3.83;;;24.10;99.90;;;;;;4965624;28;20195;-72
2024/01/26 10:26:12;;;;;;;21.20;4.53;;;24.10;99.90;;;;;;4961653;28;20184;-74
2024/01/26 10:28:40;;;;;;;20.33;4.53;;;24.00;99.90;;;;;;4976097;28;20226;-74
2024/01/26 10:31:08;;;;;;;18.67;3.83;;;23.90;99.90;;;;;;4964263;28;20188;-75
2024/01/26 10:33:40;;;;;;;29.07;5.20;;;23.90;99.90;;;;;;4967131;28;20218;-75
2024/01/26 10:36:13;;;;;;;17.40;4.27;;;23.90;99.90;;;;;;4962468;28;20314;-74
2024/01/26 10:38:42;;;;;;;21.33;4.43;;;24.00;99.90;;;;;;4962092;28;20658;-76
2024/01/26 10:41:17;;;;;;;19.40;3.67;;;24.00;99.90;;;;;;4956722;28;20654;-75
2024/01/26 10:43:45;;;;;;;23.57;5.10;;;24.00;99.90;;;;;;4957353;28;20183;-73
2024/01/26 10:46:13;;;;;;;17.13;4.67;;;24.00;99.90;;;;;;4964226;28;20203;-74
2024/01/26 10:48:42;;;;;;;22.63;4.53;;;24.00;99.90;;;;;;4974446;28;20270;-75
2024/01/26 10:51:11;;;;;;;15.40;3.77;;;23.90;99.90;;;;;;4976302;28;20187;-74
2024/01/26 10:53:45;;;;;;;18.83;3.47;;;23.90;99.90;;;;;;4963133;28;20219;-74
2024/01/26 10:56:13;;;;;;;18.63;4.80;;;24.00;99.90;;;;;;4975708;28;20179;-76
2024/01/26 10:58:44;;;;;;;26.13;4.40;;;24.00;99.90;;;;;;4971420;28;20192;-74
2024/01/26 11:01:12;;;;;;;18.23;4.20;;;24.00;99.90;;;;;;4960640;28;20534;-76
2024/01/26 11:03:40;;;;;;;20.50;4.40;;;23.90;99.90;;;;;;4968372;28;20191;-75
2024/01/26 11:06:10;;;;;;;22.90;3.97;;;24.00;99.90;;;;;;4971040;28;20237;-75
2024/01/26 11:08:38;;;;;;;17.00;4.27;;;24.10;99.90;;;;;;4962605;28;20188;-75
2024/01/26 11:11:06;;;;;;;22.50;5.00;;;24.10;99.90;;;;;;4966978;28;20192;-73
2024/01/26 11:13:40;;;;;;;26.40;4.60;;;24.10;99.90;;;;;;4957181;28;20254;-72
2024/01/26 11:16:09;;;;;;;18.87;4.60;;;24.10;99.90;;;;;;4956908;28;20219;-72
2024/01/26 11:18:38;;;;;;;14.47;3.93;;;24.00;99.90;;;;;;4956891;28;20184;-72
2024/01/26 11:21:06;;;;;;;21.13;5.43;;;24.00;99.90;;;;;;4971397;28;20187;-72
2024/01/26 11:23:41;;;;;;;28.40;5.13;;;24.00;99.90;;;;;;4975521;28;20194;-72
2024/01/26 11:26:15;;;;;;;20.30;5.23;;;24.10;99.90;;;;;;4975617;28;20659;-72
2024/01/26 11:28:47;;;;;;;21.87;4.40;;;24.10;99.90;;;;;;4975031;28;20195;-75
2024/01/26 11:31:15;;;;;;;20.03;3.87;;;24.10;99.90;;;;;;4976013;28;20664;-72
2024/01/26 11:33:43;;;;;;;17.13;4.30;;;24.20;99.90;;;;;;4975340;28;20250;-73
2024/01/26 11:36:11;;;;;;;17.00;4.13;;;24.20;99.90;;;;;;4975648;28;20277;-72
2024/01/26 11:38:40;;;;;;;21.30;4.10;;;24.20;99.90;;;;;;4973245;28;20286;-72
2024/01/26 11:41:10;;;;;;;23.60;5.27;;;24.10;99.90;;;;;;4972574;28;20191;-72
2024/01/26 11:43:45;;;;;;;30.03;4.73;;;24.10;99.90;;;;;;4974142;28;20214;-72
2024/01/26 11:46:13;;;;;;;28.37;4.97;;;23.90;99.90;;;;;;4971792;28;20192;-73
2024/01/26 11:48:41;;;;;;;24.47;5.07;;;23.90;99.90;;;;;;4974691;28;20183;-73
2024/01/26 11:51:09;;;;;;;24.20;4.30;;;23.90;99.90;;;;;;4974879;28;20195;-72
2024/01/26 11:53:37;;;;;;;19.10;3.87;;;23.90;99.90;;;;;;4961246;28;20701;-72
2024/01/26 11:56:05;;;;;;;23.93;4.53;;;23.90;99.90;;;;;;4956198;28;20183;-72
2024/01/26 11:58:34;;;;;;;23.17;4.23;;;23.90;99.90;;;;;;4955887;28;20242;-74
2024/01/26 12:01:02;;;;;;;21.63;4.50;;;23.90;99.90;;;;;;4955971;28;20183;-74
2024/01/26 12:03:30;;;;;;;20.53;5.33;;;23.90;99.90;;;;;;4956979;28;20200;-72
2024/01/26 12:05:58;;;;;;;24.37;3.80;;;23.90;99.90;;;;;;4955899;28;20546;-74
2024/01/26 12:08:26;;;;;;;19.23;4.07;;;23.90;99.90;;;;;;4955877;28;20191;-73
2024/01/26 12:10:54;;;;;;;23.77;4.87;;;23.90;99.90;;;;;;4955685;28;20191;-74
2024/01/26 12:13:22;;;;;;;24.40;4.73;;;24.00;99.90;;;;;;4954552;28;20282;-72
2024/01/26 12:15:50;;;;;;;24.73;4.10;;;24.00;99.90;;;;;;4955589;28;20198;-75
2024/01/26 12:18:18;;;;;;;16.73;4.73;;;24.00;99.90;;;;;;4973661;28;20278;-74
2024/01/26 12:20:48;;;;;;;22.57;3.90;;;23.90;99.90;;;;;;4974316;28;20649;-71
2024/01/26 12:23:17;;;;;;;16.67;4.13;;;23.80;99.90;;;;;;4974504;28;20190;-73
2024/01/26 12:25:45;;;;;;;18.27;4.37;;;23.80;99.90;;;;;;4965987;28;20556;-73
2024/01/26 12:28:15;;;;;;;16.50;4.63;;;23.70;99.90;;;;;;4955598;28;20180;-71
2024/01/26 12:30:45;;;;;;;17.83;4.23;;;23.70;99.90;;;;;;4955418;28;20244;-74
2024/01/26 12:33:13;;;;;;;21.87;4.33;;;23.70;99.90;;;;;;4968920;28;20222;-71
2024/01/26 12:35:42;;;;;;;23.70;4.23;;;23.70;99.90;;;;;;4973045;28;20727;-72
2024/01/26 12:38:11;;;;;;;24.77;4.27;;;23.60;99.90;;;;;;4973883;28;20191;-72
2024/01/26 12:40:39;;;;;;;17.33;4.83;;;23.50;99.90;;;;;;4973568;28;20191;-72
2024/01/26 12:43:07;;;;;;;15.53;3.80;;;23.50;99.90;;;;;;4974242;28;20187;-72
2024/01/26 12:45:35;;;;;;;26.23;4.20;;;23.40;99.90;;;;;;4959803;28;20271;-72
2024/01/26 12:48:04;;;;;;;18.67;4.10;;;23.40;99.90;;;;;;4968356;28;20250;-73
2024/01/26 12:50:32;;;;;;;19.07;5.17;;;23.40;99.90;;;;;;4974275;28;20668;-73
2024/01/26 12:53:00;;;;;;;17.13;4.20;;;23.40;99.90;;;;;;4974114;28;20226;-74
2024/01/26 12:55:27;;;;;;;17.87;4.27;;;23.40;99.90;;;;;;4972091;28;20179;-72
2024/01/26 12:57:55;;;;;;;24.07;4.50;;;23.30;99.90;;;;;;4961057;28;20620;-72
2024/01/26 13:00:23;;;;;;;19.13;4.20;;;23.20;99.90;;;;;;4953835;28;20236;-71
2024/01/26 13:02:51;;;;;;;20.50;4.73;;;23.10;99.90;;;;;;4954992;28;20180;-72
2024/01/26 13:05:20;;;;;;;18.53;4.90;;;23.00;99.90;;;;;;4956623;28;20190;-75
2024/01/26 13:07:48;;;;;;;19.97;4.67;;;22.90;99.90;;;;;;4974289;28;20649;-72
2024/01/26 13:13:40;;;;;;;30.87;5.43;;;22.60;99.90;;;;;;4973624;28;20632;-73
2024/01/26 13:16:09;;;;;;;16.30;4.10;;;22.50;99.90;;;;;;4978359;28;20194;-72
2024/01/26 13:18:38;;;;;;;15.80;3.97;;;22.40;99.90;;;;;;4967659;28;20188;-71
2024/01/26 13:21:06;;;;;;;20.23;4.93;;;22.40;99.90;;;;;;4957396;28;20188;-71
2024/01/26 13:23:33;;;;;;;23.43;5.00;;;22.40;99.90;;;;;;4955355;28;20213;-72
2024/01/26 13:26:02;;;;;;;18.67;4.10;;;22.30;99.90;;;;;;4954865;28;20646;-70
2024/01/26 13:28:30;;;;;;;14.97;3.50;;;22.20;99.90;;;;;;4960056;28;20195;-73
2024/01/26 13:30:59;;;;;;;17.60;4.37;;;22.20;99.90;;;;;;4959828;28;20199;-72